Time;durP1;ratioP1;P1;durP2;ratioP2;P2;SDS_P1;SDS_P2;PMS_P1;PMS_P2;Temp;Humidity;BMP_temperature;BMP_pressure;BME280_temperature;BME280_humidity;BME280_pressure;Samples;Min_cycle;Max_cycle;Signal;HPM_P1;HPM_P2
2021/01/04 00:02:24;;;;;;;32.63;21.70;;;;;;;1.91;100.00;97704.88;5113011;28;20210;-68
2021/01/04 00:05:16;;;;;;;34.77;21.10;;;;;;;1.88;100.00;97702.44;5112934;28;20576;-71
2021/01/04 00:08:28;;;;;;;34.90;21.73;;;;;;;1.91;100.00;97697.06;5114543;28;20544;-67
2021/01/04 00:11:15;;;;;;;33.67;20.90;;;;;;;1.92;100.00;97706.59;5116771;28;20202;-67
2021/01/04 00:13:50;;;;;;;34.03;21.40;;;;;;;1.95;100.00;97701.25;5116572;28;20613;-73
2021/01/04 00:16:24;;;;;;;33.17;21.67;;;;;;;1.98;100.00;97701.13;5116571;28;20210;-72
2021/01/04 00:19:00;;;;;;;33.60;21.83;;;;;;;1.99;100.00;97691.53;5116630;28;20210;-70
2021/01/04 00:21:36;;;;;;;34.87;21.87;;;;;;;1.98;100.00;97690.72;5116367;28;20210;-73
2021/01/04 00:24:06;;;;;;;32.47;21.70;;;;;;;1.97;100.00;97694.22;5116082;28;20209;-70
2021/01/04 00:26:42;;;;;;;30.07;20.50;;;;;;;1.98;100.00;97695.94;5116289;28;20221;-69
2021/01/04 00:29:10;;;;;;;35.27;21.27;;;;;;;1.99;100.00;97697.63;5116325;28;20224;-68
2021/01/04 00:31:39;;;;;;;35.03;22.33;;;;;;;1.98;100.00;97695.94;5115759;28;20207;-69
2021/01/04 00:34:08;;;;;;;34.17;21.10;;;;;;;1.97;100.00;97696.81;5114247;28;20207;-70
2021/01/04 00:36:46;;;;;;;33.77;22.07;;;;;;;1.98;100.00;97690.72;5115882;28;20206;-70
2021/01/04 00:39:42;;;;;;;33.83;21.93;;;;;;;1.97;100.00;97694.22;5115707;28;20254;-70
2021/01/04 00:42:26;;;;;;;32.20;20.20;;;;;;;2.01;100.00;97695.78;5115728;28;20221;-68
2021/01/04 00:45:01;;;;;;;35.03;21.53;;;;;;;2.01;100.00;97698.38;5116040;28;20202;-69
2021/01/04 00:47:34;;;;;;;36.63;22.17;;;;;;;2.00;100.00;97703.66;5116297;28;20621;-69
2021/01/04 00:50:08;;;;;;;32.83;20.57;;;;;;;2.00;100.00;97707.13;5116027;28;20210;-69
2021/01/04 00:52:42;;;;;;;32.87;20.90;;;;;;;1.99;100.00;97705.44;5115803;28;20210;-69
2021/01/04 00:55:27;;;;;;;32.30;21.27;;;;;;;1.96;100.00;97702.94;5115790;28;20292;-70
2021/01/04 00:58:15;;;;;;;34.00;21.43;;;;;;;1.95;100.00;97701.25;5115669;28;20571;-67
2021/01/04 01:00:50;;;;;;;37.60;22.20;;;;;;;1.94;100.00;97693.50;5113974;28;20230;-69
2021/01/04 01:03:46;;;;;;;32.20;22.10;;;;;;;1.97;100.00;97709.84;5115334;28;20213;-65
2021/01/04 01:06:24;;;;;;;33.93;21.63;;;;;;;2.00;100.00;97703.66;5115391;28;20206;-66
2021/01/04 01:08:54;;;;;;;33.00;21.10;;;;;;;2.04;100.00;97711.31;5115327;28;20220;-66
2021/01/04 01:11:25;;;;;;;36.57;21.77;;;;;;;2.03;100.00;97709.59;5115343;28;20256;-66
2021/01/04 01:13:57;;;;;;;33.03;20.13;;;;;;;2.05;100.00;97710.38;5115564;28;20210;-66
2021/01/04 01:16:36;;;;;;;33.83;20.87;;;;;;;2.04;100.00;97705.22;5115384;28;20210;-67
2021/01/04 01:19:13;;;;;;;31.67;20.03;;;;;;;2.02;100.00;97710.50;5115242;28;20216;-67
2021/01/04 01:21:44;;;;;;;32.70;21.23;;;;;;;2.01;100.00;97711.41;5115291;28;20287;-68
2021/01/04 01:24:11;;;;;;;34.33;21.93;;;;;;;1.97;100.00;97709.84;5115258;28;20214;-67
2021/01/04 01:27:02;;;;;;;31.67;20.00;;;;;;;1.94;100.00;97709.13;5113303;28;20205;-68
2021/01/04 01:29:54;;;;;;;35.67;21.90;;;;;;;1.89;100.00;97717.16;5114843;28;20290;-68
2021/01/04 01:32:42;;;;;;;35.93;21.67;;;;;;;1.86;100.00;97711.22;5094404;28;20218;-69
2021/01/04 01:35:21;;;;;;;37.67;22.93;;;;;;;1.81;100.00;97713.16;5094658;28;20580;-70
2021/01/04 01:38:21;;;;;;;34.93;22.00;;;;;;;1.81;100.00;97718.38;5094338;28;20210;-70
2021/01/04 01:41:07;;;;;;;32.27;20.47;;;;;;;1.81;100.00;97719.22;5094040;28;20726;-70
2021/01/04 01:43:49;;;;;;;34.70;21.70;;;;;;;1.81;100.00;97723.56;5094145;28;20207;-69
2021/01/04 01:46:22;;;;;;;34.40;22.03;;;;;;;1.82;100.00;97720.91;5094243;28;20218;-69
2021/01/04 01:49:02;;;;;;;34.47;21.53;;;;;;;1.82;100.00;97723.53;5094335;28;20203;-70
2021/01/04 01:51:39;;;;;;;32.27;21.37;;;;;;;1.82;100.00;97723.53;5092264;28;20211;-70
2021/01/04 01:54:17;;;;;;;32.13;20.03;;;;;;;1.81;100.00;97720.97;5094377;28;20218;-69
2021/01/04 01:56:57;;;;;;;36.13;23.03;;;;;;;1.82;100.00;97715.72;5094303;28;20562;-70
2021/01/04 01:59:46;;;;;;;35.13;21.87;;;;;;;1.77;100.00;97712.44;5094097;28;20264;-70
2021/01/04 02:02:19;;;;;;;38.20;23.43;;;;;;;1.76;100.00;97715.97;5093985;28;20209;-69
2021/01/04 02:04:53;;;;;;;39.00;23.97;;;;;;;1.75;100.00;97718.63;5094120;28;20215;-71
2021/01/04 02:07:24;;;;;;;37.30;22.93;;;;;;;1.73;100.00;97721.28;5093996;28;20206;-70
2021/01/04 02:09:56;;;;;;;38.50;23.83;;;;;;;1.72;100.00;97727.41;5093995;28;20219;-70
2021/01/04 02:12:26;;;;;;;36.90;23.33;;;;;;;1.72;100.00;97719.59;5093907;28;20211;-70
2021/01/04 02:15:07;;;;;;;36.83;23.23;;;;;;;1.71;100.00;97727.50;5093973;28;20208;-69
2021/01/04 02:17:53;;;;;;;34.77;22.43;;;;;;;1.71;100.00;97712.69;5091855;28;20211;-69
2021/01/04 02:20:47;;;;;;;36.33;22.13;;;;;;;1.69;100.00;97714.53;5093838;28;20238;-69
2021/01/04 02:23:37;;;;;;;36.70;22.43;;;;;;;1.70;100.00;97716.22;5093787;28;20213;-69
2021/01/04 02:26:10;;;;;;;37.50;23.43;;;;;;;1.73;100.00;97710.84;5093547;28;20218;-69
2021/01/04 02:28:51;;;;;;;37.00;22.23;;;;;;;1.71;100.00;97712.69;5093233;28;20256;-68
2021/01/04 02:31:16;;;;;;;35.67;22.50;;;;;;;1.71;100.00;97710.09;5106359;28;20556;-69
2021/01/04 02:33:43;;;;;;;36.00;21.77;;;;;;;1.71;100.00;97717.06;5114012;28;20287;-67
2021/01/04 02:36:09;;;;;;;34.10;22.30;;;;;;;1.68;100.00;97715.44;5113769;28;20206;-66
2021/01/04 02:38:42;;;;;;;35.90;23.53;;;;;;;1.66;100.00;97713.81;5113914;28;20213;-65
2021/01/04 02:41:10;;;;;;;33.60;21.77;;;;;;;1.68;100.00;97712.84;5113788;28;20241;-67
2021/01/04 02:43:36;;;;;;;34.73;22.60;;;;;;;1.67;100.00;97715.50;5112068;28;20266;-68
2021/01/04 02:46:07;;;;;;;32.70;21.13;;;;;;;1.68;100.00;97709.38;5113789;28;20210;-66
2021/01/04 02:48:44;;;;;;;34.80;22.23;;;;;;;1.68;100.00;97705.00;5113749;28;20218;-67
2021/01/04 02:51:15;;;;;;;34.77;21.13;;;;;;;1.69;100.00;97709.31;5113691;28;20571;-66
2021/01/04 02:54:04;;;;;;;35.47;21.40;;;;;;;1.67;100.00;97712.88;5113688;28;20218;-67
2021/01/04 02:56:44;;;;;;;35.20;21.87;;;;;;;1.65;100.00;97710.34;5114033;28;20241;-67
2021/01/04 02:59:21;;;;;;;35.00;20.93;;;;;;;1.66;100.00;97717.22;5113748;28;20244;-67
2021/01/04 03:01:54;;;;;;;35.27;21.40;;;;;;;1.64;100.00;97715.59;5113758;28;20273;-66
2021/01/04 03:04:22;;;;;;;36.07;20.63;;;;;;;1.66;100.00;97724.22;5114904;28;20263;-66
2021/01/04 03:06:55;;;;;;;36.40;20.90;;;;;;;1.64;100.00;97732.09;5114875;28;20675;-66
2021/01/04 03:09:21;;;;;;;34.00;20.47;;;;;;;1.63;100.00;97730.41;5112677;28;20219;-66
2021/01/04 03:11:49;;;;;;;38.50;23.10;;;;;;;1.66;100.00;97727.66;5114296;28;20214;-67
2021/01/04 03:14:28;;;;;;;36.50;21.00;;;;;;;1.65;100.00;97725.97;5113824;28;20607;-66
2021/01/04 03:17:02;;;;;;;37.50;22.97;;;;;;;1.65;100.00;97730.34;5113446;28;20266;-66
2021/01/04 03:19:33;;;;;;;36.70;21.97;;;;;;;1.62;100.00;97723.50;5113509;28;20205;-66
2021/01/04 03:22:03;;;;;;;35.77;22.53;;;;;;;1.63;100.00;97725.19;5113479;28;20210;-66
2021/01/04 03:24:29;;;;;;;35.03;22.30;;;;;;;1.63;100.00;97725.19;5113304;28;20232;-66
2021/01/04 03:27:02;;;;;;;34.67;21.83;;;;;;;1.62;100.00;97723.50;5113363;28;20260;-67
2021/01/04 03:29:28;;;;;;;32.67;21.43;;;;;;;1.62;100.00;97722.63;5113457;28;20213;-66
2021/01/04 03:31:54;;;;;;;34.90;21.17;;;;;;;1.62;100.00;97723.50;5113260;28;20256;-70
2021/01/04 03:34:20;;;;;;;34.13;21.77;;;;;;;1.65;100.00;97722.53;5112922;28;20206;-69
2021/01/04 03:36:47;;;;;;;36.03;21.67;;;;;;;1.64;100.00;97724.28;5111280;28;20305;-69
2021/01/04 03:39:13;;;;;;;36.77;22.00;;;;;;;1.65;100.00;97723.34;5113019;28;20207;-66
2021/01/04 03:41:39;;;;;;;34.93;21.90;;;;;;;1.66;100.00;97714.63;5114572;28;20280;-66
2021/01/04 03:44:06;;;;;;;36.93;23.87;;;;;;;1.65;100.00;97723.34;5117202;28;20297;-67
2021/01/04 03:46:32;;;;;;;38.57;23.70;;;;;;;1.58;100.00;97727.13;5117177;28;20207;-69
2021/01/04 03:48:58;;;;;;;34.97;22.77;;;;;;;1.57;100.00;97724.56;5116867;28;20212;-69
2021/01/04 03:51:24;;;;;;;35.30;22.37;;;;;;;1.56;100.00;97721.13;5116740;28;20671;-69
2021/01/04 03:53:50;;;;;;;36.40;22.70;;;;;;;1.60;100.00;97719.25;5117174;28;20237;-69
2021/01/04 03:56:18;;;;;;;35.63;22.27;;;;;;;1.57;100.00;97724.56;5117064;28;20242;-69
2021/01/04 03:58:44;;;;;;;37.03;22.53;;;;;;;1.53;100.00;97728.22;5116691;28;20718;-69
2021/01/04 04:01:11;;;;;;;37.63;22.50;;;;;;;1.46;100.00;97722.41;5115746;28;20237;-69
2021/01/04 04:03:37;;;;;;;39.47;22.53;;;;;;;1.45;100.00;97719.84;5115971;28;20671;-68
2021/01/04 04:06:03;;;;;;;35.07;21.33;;;;;;;1.47;100.00;97723.25;5116727;28;20218;-68
2021/01/04 04:08:29;;;;;;;37.17;22.20;;;;;;;1.46;100.00;97719.81;5116763;28;20210;-70
2021/01/04 04:10:55;;;;;;;35.30;22.07;;;;;;;1.46;100.00;97722.41;5116704;28;20236;-71
2021/01/04 04:13:21;;;;;;;37.30;22.77;;;;;;;1.43;100.00;97722.53;5116569;28;20210;-70
2021/01/04 04:15:47;;;;;;;38.87;23.90;;;;;;;1.43;100.00;97727.75;5116464;28;20207;-71
2021/01/04 04:18:14;;;;;;;41.37;23.63;;;;;;;1.42;100.00;97723.44;5116528;28;20233;-70
2021/01/04 04:20:40;;;;;;;38.30;23.33;;;;;;;1.40;100.00;97733.06;5116409;28;20229;-70
2021/01/04 04:23:06;;;;;;;35.20;22.17;;;;;;;1.43;100.00;97726.88;5116401;28;20219;-70
2021/01/04 04:25:33;;;;;;;39.03;23.27;;;;;;;1.45;100.00;97731.13;5116349;28;20225;-70
2021/01/04 04:27:59;;;;;;;38.37;22.80;;;;;;;1.46;100.00;97726.75;5114407;28;20713;-70
2021/01/04 04:30:26;;;;;;;39.57;24.63;;;;;;;1.45;100.00;97725.94;5116059;28;20285;-69
2021/01/04 04:32:54;;;;;;;40.23;24.57;;;;;;;1.45;100.00;97725.94;5115964;28;20214;-71
2021/01/04 04:35:21;;;;;;;38.87;23.53;;;;;;;1.41;100.00;97724.34;5115867;28;20671;-71
2021/01/04 04:37:48;;;;;;;41.27;25.27;;;;;;;1.40;100.00;97721.78;5116166;28;20617;-69
2021/01/04 04:40:17;;;;;;;41.77;26.17;;;;;;;1.40;100.00;97722.66;5115744;28;20238;-70
2021/01/04 04:42:43;;;;;;;38.17;22.67;;;;;;;1.40;100.00;97720.03;5116054;28;20217;-71
2021/01/04 04:45:14;;;;;;;40.33;23.77;;;;;;;1.39;100.00;97720.97;5116077;27;20207;-71
2021/01/04 04:47:58;;;;;;;40.87;24.47;;;;;;;1.39;100.00;97720.97;5116104;28;20206;-71
2021/01/04 04:51:08;;;;;;;38.13;22.23;;;;;;;1.40;100.00;97727.84;5115745;28;20210;-68
2021/01/04 04:54:01;;;;;;;40.20;24.70;;;;;;;1.36;100.00;97731.47;5050611;28;20211;-69
2021/01/04 04:56:53;;;;;;;41.57;24.40;;;;;;;1.38;100.00;97727.06;5115905;28;20206;-68
2021/01/04 04:59:29;;;;;;;40.03;24.47;;;;;;;1.40;100.00;97722.66;5115978;28;20233;-68
2021/01/04 05:02:05;;;;;;;43.50;24.20;;;;;;;1.39;100.00;97731.38;5115582;28;20202;-68
2021/01/04 05:04:54;;;;;;;36.33;22.87;;;;;;;1.40;100.00;97724.38;5115801;28;20210;-68
2021/01/04 05:07:32;;;;;;;40.03;23.40;;;;;;;1.37;100.00;97728.00;5116046;28;20217;-68
2021/01/04 05:10:01;;;;;;;42.63;24.00;;;;;;;1.38;100.00;97734.88;5115553;28;20232;-68
2021/01/04 05:12:45;;;;;;;40.27;23.77;;;;;;;1.37;100.00;97732.34;5115466;28;20203;-69
2021/01/04 05:15:25;;;;;;;41.90;23.83;;;;;;;1.38;100.00;97727.06;5115283;28;20695;-69
2021/01/04 05:18:34;;;;;;;42.63;24.73;;;;;;;1.38;100.00;97737.50;5115199;28;20224;-71
2021/01/04 05:21:57;;;;;;;37.97;22.73;;;;;;;1.45;100.00;97740.69;5050478;28;20235;-69
2021/01/04 05:25:01;;;;;;;38.00;23.00;;;;;;;1.49;100.00;97743.13;5078559;28;20620;-70
2021/01/04 05:28:05;;;;;;;37.53;21.53;;;;;;;1.49;100.00;97735.31;5115155;28;20206;-70
2021/01/04 05:30:54;;;;;;;38.07;22.97;;;;;;;1.50;100.00;97736.16;5115068;28;20267;-69
2021/01/04 05:33:47;;;;;;;35.83;21.70;;;;;;;1.52;100.00;97743.00;5114812;28;20689;-70
2021/01/04 05:36:29;;;;;;;34.77;22.33;;;;;;;1.52;100.00;97736.91;5115127;28;20615;-70
2021/01/04 05:39:07;;;;;;;36.63;21.13;;;;;;;1.50;100.00;97739.63;5114955;28;20262;-71
2021/01/04 05:41:53;;;;;;;36.17;21.93;;;;;;;1.55;100.00;97742.88;5114571;28;20234;-68
2021/01/04 05:44:37;;;;;;;35.20;21.67;;;;;;;1.54;100.00;97737.72;5114580;28;20693;-68
2021/01/04 05:47:11;;;;;;;35.53;21.37;;;;;;;1.53;100.00;97744.69;5112917;28;20210;-69
2021/01/04 05:49:45;;;;;;;34.93;22.03;;;;;;;1.55;100.00;97737.69;5114753;28;20202;-69
2021/01/04 05:52:15;;;;;;;34.80;21.43;;;;;;;1.56;100.00;97739.38;5114681;28;20241;-67
2021/01/04 05:54:41;;;;;;;34.13;21.53;;;;;;;1.58;100.00;97742.75;5114422;28;20689;-67
2021/01/04 05:57:10;;;;;;;33.97;21.87;;;;;;;1.57;100.00;97741.06;5114372;28;20210;-69
2021/01/04 05:59:46;;;;;;;35.60;21.90;;;;;;;1.57;100.00;97741.06;5114176;28;20233;-69
2021/01/04 06:02:22;;;;;;;36.97;20.77;;;;;;;1.55;100.00;97737.69;5114184;28;20207;-68
2021/01/04 06:04:48;;;;;;;32.43;19.50;;;;;;;1.57;100.00;97740.19;5113788;28;20220;-68
2021/01/04 06:07:14;;;;;;;32.50;20.60;;;;;;;1.56;100.00;97739.38;5114313;28;20259;-69
2021/01/04 06:09:40;;;;;;;33.97;20.53;;;;;;;1.55;100.00;97737.69;5114164;28;20212;-70
2021/01/04 06:12:16;;;;;;;33.87;20.43;;;;;;;1.53;100.00;97739.47;5112665;28;20217;-69
2021/01/04 06:14:42;;;;;;;37.30;21.70;;;;;;;1.50;100.00;97744.81;5114238;28;20205;-69
2021/01/04 06:17:27;;;;;;;35.97;21.13;;;;;;;1.50;100.00;97734.41;5114248;28;20213;-69
2021/01/04 06:19:55;;;;;;;37.63;22.70;;;;;;;1.53;100.00;97728.22;5114091;28;20589;-70
2021/01/04 06:22:28;;;;;;;40.97;23.77;;;;;;;1.51;100.00;97735.22;5114170;28;20216;-69
2021/01/04 06:25:00;;;;;;;39.43;21.97;;;;;;;1.48;100.00;97736.19;5114081;28;20213;-69
2021/01/04 06:27:37;;;;;;;37.63;21.93;;;;;;;1.47;100.00;97739.72;5113686;28;20219;-69
2021/01/04 06:30:19;;;;;;;38.90;23.23;;;;;;;1.43;100.00;97742.50;5113573;28;20206;-68
2021/01/04 06:32:47;;;;;;;40.50;22.93;;;;;;;1.36;100.00;97741.88;5114098;28;20206;-70
2021/01/04 06:35:22;;;;;;;39.07;21.73;;;;;;;1.36;100.00;97747.09;5113677;28;20694;-70
2021/01/04 06:37:48;;;;;;;38.63;22.57;;;;;;;1.33;100.00;97747.22;5112245;28;20243;-69
2021/01/04 06:40:35;;;;;;;38.20;22.47;;;;;;;1.32;100.00;97740.34;5113953;28;20232;-68
2021/01/04 06:43:22;;;;;;;40.17;22.17;;;;;;;1.29;100.00;97739.59;5113852;28;20213;-69
2021/01/04 06:46:01;;;;;;;39.13;22.17;;;;;;;1.25;100.00;97738.03;5113520;28;20224;-69
2021/01/04 06:48:35;;;;;;;39.40;21.33;;;;;;;1.27;100.00;97742.25;5113779;28;20218;-70
2021/01/04 06:51:19;;;;;;;40.20;21.93;;;;;;;1.26;100.00;97744.91;5113396;28;20210;-69
2021/01/04 06:54:04;;;;;;;39.63;21.60;;;;;;;1.25;100.00;97733.69;5113470;28;20694;-68
2021/01/04 06:57:07;;;;;;;40.00;22.17;;;;;;;1.24;100.00;97737.16;5113890;28;20259;-69
2021/01/04 07:00:05;;;;;;;37.73;20.90;;;;;;;1.27;100.00;97742.25;5113829;28;20255;-69
2021/01/04 07:02:58;;;;;;;39.00;20.60;;;;;;;1.22;100.00;97741.59;5113695;28;20333;-69
2021/01/04 07:06:12;;;;;;;38.63;22.60;;;;;;;1.23;100.00;97740.69;5111897;28;20209;-67
2021/01/04 07:08:57;;;;;;;37.90;21.37;;;;;;;1.28;100.00;97738.75;5113568;28;20206;-67
2021/01/04 07:11:39;;;;;;;38.80;21.50;;;;;;;1.26;100.00;97748.38;5113476;28;20255;-67
2021/01/04 07:14:20;;;;;;;34.73;21.33;;;;;;;1.27;100.00;97747.47;5113441;28;20539;-66
2021/01/04 07:17:07;;;;;;;38.30;21.27;;;;;;;1.22;100.00;97739.00;5117444;28;20206;-70
2021/01/04 07:19:47;;;;;;;39.10;21.77;;;;;;;1.19;100.00;97749.53;5117710;28;20202;-71
2021/01/04 07:22:25;;;;;;;38.23;22.17;;;;;;;1.24;100.00;97744.13;5117477;28;20216;-71
2021/01/04 07:25:05;;;;;;;36.67;21.63;;;;;;;1.26;100.00;97739.72;5117572;28;20214;-71
2021/01/04 07:27:42;;;;;;;35.67;19.67;;;;;;;1.26;100.00;97742.31;5117570;28;20202;-70
2021/01/04 07:30:19;;;;;;;37.60;21.57;;;;;;;1.26;100.00;97748.38;5115839;28;20209;-70
2021/01/04 07:33:02;;;;;;;38.73;22.17;;;;;;;1.30;100.00;97746.50;5117550;28;20213;-70
2021/01/04 07:35:34;;;;;;;38.20;22.17;;;;;;;1.30;100.00;97742.13;5117169;28;20668;-71
2021/01/04 07:38:33;;;;;;;35.03;21.13;;;;;;;1.30;100.00;97749.94;5117398;28;20210;-71
2021/01/04 07:41:18;;;;;;;38.00;21.67;;;;;;;1.31;100.00;97753.41;5116903;28;20234;-70
2021/01/04 07:44:32;;;;;;;37.07;20.13;;;;;;;1.29;100.00;97756.06;5117156;28;20211;-70
2021/01/04 07:47:22;;;;;;;35.37;20.30;;;;;;;1.30;100.00;97757.75;5117202;28;20210;-70
2021/01/04 07:50:19;;;;;;;33.97;20.27;;;;;;;1.36;100.00;97764.50;5117234;28;20206;-70
2021/01/04 07:53:08;;;;;;;38.43;20.77;;;;;;;1.41;100.00;97759.97;5117279;28;20235;-71
2021/01/04 07:56:09;;;;;;;32.27;19.70;;;;;;;1.45;100.00;97756.31;5115258;28;20207;-70
2021/01/04 07:58:57;;;;;;;37.73;21.03;;;;;;;1.51;100.00;97762.13;5113925;28;20229;-70
2021/01/04 08:01:48;;;;;;;35.97;20.03;;;;;;;1.53;100.00;97760.31;5116575;28;20236;-70
2021/01/04 08:04:45;;;;;;;40.60;21.27;;;;;;;1.53;100.00;97756.88;5116873;28;20592;-69
2021/01/04 08:08:05;;;;;;;38.87;22.60;;;;;;;1.55;100.00;97763.72;5116911;28;20216;-70
2021/01/04 08:10:56;;;;;;;38.67;21.77;;;;;;;1.58;100.00;97773.13;5091546;28;20667;-69
2021/01/04 08:13:59;;;;;;;36.57;21.70;;;;;;;1.65;100.00;97770.25;5116529;28;20206;-70
2021/01/04 08:16:30;;;;;;;36.67;21.90;;;;;;;1.69;100.00;97770.97;5116660;28;20207;-69
2021/01/04 08:18:59;;;;;;;40.37;22.33;;;;;;;1.74;100.00;97767.28;5116688;28;20210;-70
2021/01/04 08:21:38;;;;;;;35.40;21.27;;;;;;;1.76;100.00;97773.28;5114430;28;20725;-69
2021/01/04 08:24:14;;;;;;;35.87;20.97;;;;;;;1.81;100.00;97766.13;5116623;28;20206;-70
2021/01/04 08:27:03;;;;;;;34.67;19.83;;;;;;;1.84;100.00;97765.16;5115783;28;20206;-70
2021/01/04 08:29:40;;;;;;;33.83;19.43;;;;;;;1.82;100.00;97773.03;5116401;28;20210;-70
2021/01/04 08:32:17;;;;;;;35.73;21.57;;;;;;;1.83;100.00;97769.50;5115977;28;20199;-69
2021/01/04 08:34:44;;;;;;;33.13;20.33;;;;;;;1.84;100.00;97771.19;5116308;28;20209;-70
2021/01/04 08:37:13;;;;;;;34.13;20.17;;;;;;;1.86;100.00;97769.41;5116214;28;20213;-70
2021/01/04 08:39:44;;;;;;;34.53;20.93;;;;;;;1.92;100.00;97773.50;5116239;28;20210;-70
2021/01/04 08:42:29;;;;;;;31.97;19.77;;;;;;;1.91;100.00;97770.03;5116141;28;20282;-70
2021/01/04 08:44:59;;;;;;;34.03;19.30;;;;;;;1.97;100.00;97777.59;5115965;28;20578;-70
2021/01/04 08:47:35;;;;;;;33.30;20.60;;;;;;;1.99;100.00;97775.78;5114091;28;20609;-69
2021/01/04 08:50:17;;;;;;;30.90;19.67;;;;;;;1.93;100.00;97778.66;5115872;28;20218;-70
2021/01/04 08:52:47;;;;;;;31.67;19.87;;;;;;;1.88;100.00;97783.19;5115701;28;20205;-70
2021/01/04 08:55:29;;;;;;;33.63;20.17;;;;;;;1.92;100.00;97787.38;5115521;28;20227;-69
2021/01/04 08:57:56;;;;;;;31.57;18.43;;;;;;;1.99;100.00;97786.22;5115256;28;20721;-69
2021/01/04 09:00:25;;;;;;;34.77;20.53;;;;;;;2.04;100.00;97789.50;5115621;28;20227;-69
2021/01/04 09:02:51;;;;;;;33.67;20.03;;;;;;;2.07;100.00;97784.13;5115348;28;20253;-69
2021/01/04 09:05:31;;;;;;;28.77;18.53;;;;;;;2.09;100.00;97782.31;5115612;28;20259;-69
2021/01/04 09:07:59;;;;;;;30.43;19.07;;;;;;;2.12;100.00;97790.03;5115390;28;20209;-69
2021/01/04 09:10:35;;;;;;;32.40;20.17;;;;;;;2.13;100.00;97789.09;5115606;28;20202;-69
2021/01/04 09:13:09;;;;;;;32.17;19.47;;;;;;;2.16;100.00;97777.69;5113535;28;20213;-70
2021/01/04 09:15:38;;;;;;;30.53;18.63;;;;;;;2.17;100.00;97785.47;5111177;28;20589;-70
2021/01/04 09:18:33;;;;;;;31.40;19.53;;;;;;;2.21;100.00;97784.41;5113835;28;20210;-69
2021/01/04 09:21:02;;;;;;;29.60;19.23;;;;;;;2.26;100.00;97785.06;5111499;28;20608;-70
2021/01/04 09:23:33;;;;;;;30.13;19.03;;;;;;;2.30;100.00;97791.00;5114105;28;20216;-70
2021/01/04 09:26:17;;;;;;;33.13;18.63;;;;;;;2.30;100.00;97797.06;5114867;28;20241;-70
2021/01/04 09:28:45;;;;;;;32.93;19.03;;;;;;;2.32;100.00;97795.25;5115022;28;20296;-71
2021/01/04 09:31:14;;;;;;;33.07;18.80;;;;;;;2.33;100.00;97790.88;5114450;28;20212;-69
2021/01/04 09:33:47;;;;;;;29.90;18.77;;;;;;;2.33;100.00;97789.09;5114456;28;20210;-69
2021/01/04 09:36:15;;;;;;;28.90;18.90;;;;;;;2.34;100.00;97787.34;5114345;28;20221;-69
2021/01/04 09:38:41;;;;;;;30.40;18.60;;;;;;;2.37;100.00;97793.28;5113310;28;20206;-69
2021/01/04 09:41:10;;;;;;;32.60;19.77;;;;;;;2.39;100.00;97786.25;5112806;28;20229;-69
2021/01/04 09:43:38;;;;;;;32.67;19.77;;;;;;;2.37;100.00;97782.88;5114374;28;20216;-69
2021/01/04 09:46:13;;;;;;;29.87;19.10;;;;;;;2.38;100.00;97779.34;5114004;28;20218;-69
2021/01/04 09:48:45;;;;;;;30.97;19.03;;;;;;;2.39;100.00;97781.03;5114195;28;20212;-69
2021/01/04 09:51:16;;;;;;;30.50;18.73;;;;;;;2.46;100.00;97779.03;5114222;28;20202;-69
2021/01/04 09:53:44;;;;;;;30.10;18.47;;;;;;;2.43;100.00;97772.16;5114136;28;20210;-69
2021/01/04 09:56:14;;;;;;;29.67;19.10;;;;;;;2.46;100.00;97769.41;5114121;28;20261;-69
2021/01/04 09:58:41;;;;;;;31.93;20.00;;;;;;;2.57;100.00;97768.97;5114079;28;20238;-69
2021/01/04 10:01:11;;;;;;;30.77;19.40;;;;;;;2.48;100.00;97772.81;5113958;28;20271;-69
2021/01/04 10:03:39;;;;;;;32.60;19.60;;;;;;;2.41;100.00;97768.78;5113808;28;20214;-72
2021/01/04 10:06:07;;;;;;;29.43;18.73;;;;;;;2.37;100.00;97764.59;5113610;28;20233;-69
2021/01/04 10:08:34;;;;;;;31.03;19.60;;;;;;;2.41;100.00;97760.97;5112312;28;20221;-69
2021/01/04 10:11:03;;;;;;;28.83;18.97;;;;;;;2.34;100.00;97762.13;5113785;28;20210;-69
2021/01/04 10:13:31;;;;;;;30.37;19.90;;;;;;;2.37;100.00;97756.78;5113472;28;20209;-69
2021/01/04 10:16:01;;;;;;;31.50;20.03;;;;;;;2.42;100.00;97757.44;5113782;28;20210;-70
2021/01/04 10:18:41;;;;;;;32.40;19.40;;;;;;;2.38;100.00;97755.88;5113594;28;20225;-70
2021/01/04 10:21:15;;;;;;;31.70;19.43;;;;;;;2.38;100.00;97753.25;5113337;28;20234;-69
2021/01/04 10:23:48;;;;;;;32.40;19.93;;;;;;;2.35;100.00;97753.41;5113644;28;20221;-69
2021/01/04 10:26:14;;;;;;;32.23;19.73;;;;;;;2.37;100.00;97751.56;5113522;28;20206;-69
2021/01/04 10:28:41;;;;;;;32.57;19.33;;;;;;;2.41;100.00;97758.34;5113583;28;20545;-70
2021/01/04 10:31:09;;;;;;;32.80;20.00;;;;;;;2.43;100.00;97758.28;5113427;28;20611;-69
2021/01/04 10:33:38;;;;;;;30.37;18.93;;;;;;;2.45;100.00;97761.69;5111751;28;20213;-69
2021/01/04 10:36:08;;;;;;;31.00;19.40;;;;;;;2.42;100.00;97754.84;5113104;28;20210;-69
2021/01/04 10:38:38;;;;;;;32.20;19.97;;;;;;;2.47;100.00;97762.44;5113058;28;20202;-69
2021/01/04 10:41:10;;;;;;;28.70;18.10;;;;;;;2.47;100.00;97757.22;5113299;28;20599;-69
2021/01/04 10:43:37;;;;;;;34.93;19.97;;;;;;;2.52;100.00;97756.09;5112337;28;20675;-69
2021/01/04 10:46:15;;;;;;;29.00;18.47;;;;;;;2.52;100.00;97758.72;5112838;28;20206;-69
2021/01/04 10:48:57;;;;;;;29.03;18.53;;;;;;;2.60;100.00;97758.41;5113303;28;20209;-69
2021/01/04 10:51:25;;;;;;;30.13;18.70;;;;;;;2.62;100.00;97762.63;5112967;28;20206;-69
2021/01/04 10:53:51;;;;;;;30.67;18.20;;;;;;;2.64;100.00;97760.78;5113230;28;20201;-69
2021/01/04 10:56:38;;;;;;;28.87;17.37;;;;;;;2.64;100.00;97755.56;5112836;28;20698;-69
2021/01/04 10:59:14;;;;;;;28.03;17.63;;;;;;;2.72;100.00;97748.28;5112745;28;20229;-69
2021/01/04 11:01:46;;;;;;;31.77;19.37;;;;;;;2.76;100.00;97756.81;5111666;28;20324;-69
2021/01/04 11:04:14;;;;;;;28.10;17.93;;;;;;;2.80;100.00;97755.75;5112593;28;20216;-69
2021/01/04 11:06:41;;;;;;;28.97;18.37;;;;;;;2.75;100.00;97749.91;5112937;28;20210;-69
2021/01/04 11:09:13;;;;;;;28.93;18.97;;;;;;;2.77;100.00;97741.09;5112937;28;20217;-69
2021/01/04 11:11:42;;;;;;;29.77;18.60;;;;;;;2.75;100.00;97742.91;5112851;28;20206;-69
2021/01/04 11:14:12;;;;;;;28.30;17.93;;;;;;;2.80;100.00;97738.34;5112893;28;20221;-70
2021/01/04 11:16:45;;;;;;;27.43;18.47;;;;;;;2.74;100.00;97742.97;5112578;28;20671;-69
2021/01/04 11:19:12;;;;;;;28.63;18.70;;;;;;;2.72;100.00;97743.06;5112628;28;20221;-69
2021/01/04 11:21:41;;;;;;;27.57;17.97;;;;;;;2.73;100.00;97744.75;5112915;28;20237;-69
2021/01/04 11:24:08;;;;;;;28.43;17.67;;;;;;;2.73;100.00;97736.91;5112641;28;20214;-69
2021/01/04 11:26:34;;;;;;;32.00;19.23;;;;;;;2.78;100.00;97739.31;5110939;28;20663;-69
2021/01/04 11:29:00;;;;;;;27.23;18.40;;;;;;;2.76;100.00;97734.16;5112771;28;20206;-69
2021/01/04 11:31:30;;;;;;;27.60;17.60;;;;;;;2.80;100.00;97727.91;5112788;28;20206;-69
2021/01/04 11:33:57;;;;;;;28.10;18.60;;;;;;;2.84;100.00;97721.63;5112565;28;20207;-69
2021/01/04 11:36:23;;;;;;;30.40;18.77;;;;;;;2.83;100.00;97725.16;5112757;28;20206;-69
2021/01/04 11:38:49;;;;;;;28.10;18.57;;;;;;;2.84;100.00;97716.41;5112364;28;20246;-69
2021/01/04 11:41:15;;;;;;;29.13;17.43;;;;;;;2.78;100.00;97719.31;5112415;28;20241;-69
2021/01/04 11:43:42;;;;;;;27.43;18.07;;;;;;;2.80;100.00;97711.38;5112712;28;20573;-69
2021/01/04 11:46:08;;;;;;;28.07;17.83;;;;;;;2.87;100.00;97718.03;5112949;28;20292;-69
2021/01/04 11:48:34;;;;;;;29.33;18.70;;;;;;;2.85;100.00;97710.28;5114710;28;20234;-69
2021/01/04 11:51:01;;;;;;;28.63;18.17;;;;;;;2.90;100.00;97710.91;5113675;28;20237;-69
2021/01/04 11:53:29;;;;;;;24.77;17.37;;;;;;;2.93;100.00;97710.78;5111267;28;20217;-69
2021/01/04 11:55:55;;;;;;;27.17;17.73;;;;;;;2.93;100.00;97710.78;5112812;28;20259;-69
2021/01/04 11:58:21;;;;;;;30.47;18.23;;;;;;;2.97;100.00;97719.31;5112305;28;20707;-69